createdAt,value
2018-04-27T00:02:20.306Z,2.87
2018-04-27T00:04:48.720Z,2.40
2018-04-27T00:07:16.373Z,2.47
2018-04-27T00:09:44.052Z,2.80
2018-04-27T00:12:11.677Z,2.70
2018-04-27T00:14:39.179Z,2.47
2018-04-27T00:17:06.801Z,2.67
2018-04-27T00:19:34.493Z,3.30
2018-04-27T00:22:02.036Z,2.67
2018-04-27T00:24:29.537Z,3.10
2018-04-27T00:26:57.132Z,3.03
2018-04-27T00:29:24.649Z,2.37
2018-04-27T00:31:52.166Z,2.90
2018-04-27T00:34:19.856Z,2.83
2018-04-27T00:36:47.395Z,2.80
2018-04-27T00:39:15.972Z,2.77
2018-04-27T00:41:43.632Z,2.60
2018-04-27T00:44:11.293Z,3.00
2018-04-27T00:46:38.797Z,2.60
2018-04-27T00:49:06.470Z,2.37
2018-04-27T00:51:34.005Z,2.90
2018-04-27T00:54:01.629Z,2.47
2018-04-27T00:56:29.208Z,2.80
2018-04-27T00:58:56.846Z,2.63
2018-04-27T01:01:24.507Z,2.37
2018-04-27T01:03:52.169Z,2.67
2018-04-27T01:06:19.701Z,2.67
2018-04-27T01:08:52.069Z,2.43
2018-04-27T01:11:19.598Z,2.40
2018-04-27T01:13:47.143Z,2.73
2018-04-27T01:16:15.600Z,2.37
2018-04-27T01:18:43.097Z,2.47
2018-04-27T01:21:10.933Z,2.43
2018-04-27T01:23:38.457Z,2.80
2018-04-27T01:26:06.019Z,2.70
2018-04-27T01:28:33.684Z,2.33
2018-04-27T01:31:01.547Z,2.67
2018-04-27T01:33:29.051Z,2.27
2018-04-27T01:35:56.703Z,2.80
2018-04-27T01:38:25.669Z,2.40
2018-04-27T01:40:53.190Z,2.87
2018-04-27T01:43:20.912Z,1.83
2018-04-27T01:45:48.444Z,2.37
2018-04-27T01:48:16.066Z,2.40
2018-04-27T01:50:45.013Z,2.70
2018-04-27T01:53:12.543Z,2.83
2018-04-27T01:55:40.071Z,2.73
2018-04-27T01:58:07.589Z,2.23
2018-04-27T02:00:35.091Z,2.17
2018-04-27T02:03:02.594Z,2.07
2018-04-27T02:05:30.105Z,2.20
2018-04-27T02:07:58.382Z,2.87
2018-04-27T02:10:27.493Z,2.73
2018-04-27T02:12:55.741Z,1.80
2018-04-27T02:15:23.562Z,2.57
2018-04-27T02:17:51.142Z,2.87
2018-04-27T02:20:18.857Z,2.40
2018-04-27T02:22:47.159Z,2.43
2018-04-27T02:25:14.619Z,2.80
2018-04-27T02:27:42.061Z,2.10
2018-04-27T02:30:09.618Z,2.53
2018-04-27T02:32:37.343Z,2.17
2018-04-27T02:35:04.803Z,2.70
2018-04-27T02:37:32.243Z,2.17
2018-04-27T02:40:00.481Z,2.10
2018-04-27T02:42:28.152Z,2.33
2018-04-27T02:44:56.627Z,2.43
2018-04-27T02:47:24.183Z,2.10
2018-04-27T02:49:51.732Z,2.33
2018-04-27T02:52:19.214Z,2.40
2018-04-27T02:54:46.741Z,3.07
2018-04-27T02:57:14.208Z,2.23
2018-04-27T02:59:41.798Z,1.83
2018-04-27T03:02:10.775Z,2.60
2018-04-27T03:04:38.231Z,2.50
2018-04-27T03:07:05.807Z,2.53
2018-04-27T03:09:33.471Z,2.70
2018-04-27T03:12:00.923Z,2.50
2018-04-27T03:14:29.423Z,2.13
2018-04-27T03:16:56.860Z,2.40
2018-04-27T03:19:24.504Z,2.43
2018-04-27T03:21:51.964Z,2.33
2018-04-27T03:24:19.445Z,2.57
2018-04-27T03:26:46.896Z,2.20
2018-04-27T03:29:15.110Z,2.20
2018-04-27T03:31:42.600Z,2.87
2018-04-27T03:34:10.283Z,2.17
2018-04-27T03:36:37.916Z,2.67
2018-04-27T03:39:05.379Z,2.47
2018-04-27T03:41:33.032Z,2.70
2018-04-27T03:44:00.692Z,2.73
2018-04-27T03:46:28.169Z,2.77
2018-04-27T03:48:55.728Z,2.67
2018-04-27T03:51:23.182Z,2.93
2018-04-27T03:53:51.446Z,3.83
2018-04-27T03:56:19.016Z,3.00
2018-04-27T03:58:46.554Z,2.80
2018-04-27T04:07:37.080Z,2.80
2018-04-27T04:10:04.570Z,2.97
2018-04-27T04:12:33.656Z,2.70
2018-04-27T04:15:01.128Z,3.33
2018-04-27T04:17:28.655Z,3.40
2018-04-27T04:19:56.114Z,3.60
2018-04-27T04:22:23.579Z,3.30
2018-04-27T04:24:51.142Z,3.50
2018-04-27T04:27:18.813Z,3.27
2018-04-27T04:29:46.291Z,3.10
2018-04-27T04:32:13.730Z,3.00
2018-04-27T04:34:41.168Z,3.77
2018-04-27T04:37:10.273Z,3.27
2018-04-27T04:39:37.716Z,3.57
2018-04-27T04:42:05.259Z,3.40
2018-04-27T04:44:32.725Z,3.50
2018-04-27T04:47:00.275Z,3.37
2018-04-27T04:49:27.734Z,3.27
2018-04-27T04:51:55.189Z,3.43
2018-04-27T04:54:22.759Z,3.23
2018-04-27T04:56:50.206Z,3.07
2018-04-27T04:59:17.772Z,3.33
2018-04-27T05:01:45.332Z,4.63
2018-04-27T05:04:12.774Z,3.70
2018-04-27T05:06:40.232Z,3.60
2018-04-27T05:09:08.019Z,3.80
2018-04-27T05:11:35.477Z,3.60
2018-04-27T05:14:03.012Z,3.70
2018-04-27T05:16:30.457Z,3.83
2018-04-27T05:18:58.996Z,4.53
2018-04-27T05:21:27.345Z,4.00
2018-04-27T05:23:54.808Z,4.13
2018-04-27T05:26:22.277Z,4.30
2018-04-27T05:28:49.725Z,4.07
2018-04-27T05:31:23.719Z,4.27
2018-04-27T05:33:51.392Z,4.43
2018-04-27T05:36:19.852Z,4.03
2018-04-27T05:38:47.737Z,4.13
2018-04-27T05:41:15.211Z,4.33
2018-04-27T05:43:42.666Z,4.43
2018-04-27T05:46:10.878Z,4.23
2018-04-27T05:48:38.386Z,3.83
2018-04-27T05:51:05.843Z,4.40
2018-04-27T05:53:33.297Z,4.30
2018-04-27T05:56:02.366Z,4.07
2018-04-27T05:58:30.053Z,4.50
2018-04-27T06:00:57.484Z,4.40
2018-04-27T06:03:24.952Z,4.20
2018-04-27T06:05:54.052Z,3.97
2018-04-27T06:08:23.018Z,4.13
2018-04-27T06:10:50.603Z,4.50
2018-04-27T06:13:18.237Z,4.27
2018-04-27T06:15:45.901Z,4.10
2018-04-27T06:18:13.381Z,3.87
2018-04-27T06:20:42.471Z,3.80
2018-04-27T06:23:10.106Z,4.27
2018-04-27T06:25:37.641Z,4.70
2018-04-27T06:28:05.148Z,3.83
2018-04-27T06:30:32.699Z,4.83
2018-04-27T06:33:00.155Z,4.43
2018-04-27T06:35:27.819Z,4.37
2018-04-27T06:37:55.271Z,4.57
2018-04-27T06:40:22.927Z,4.40
2018-04-27T06:42:50.379Z,4.80
2018-04-27T06:45:17.842Z,4.60
2018-04-27T06:47:45.510Z,4.37
2018-04-27T06:50:12.960Z,4.30
2018-04-27T06:52:40.615Z,4.17
2018-04-27T06:55:08.182Z,4.70
2018-04-27T06:57:35.634Z,4.43
2018-04-27T07:00:03.209Z,4.23
2018-04-27T07:02:31.479Z,4.70
2018-04-27T07:04:59.132Z,3.93
2018-04-27T07:07:26.590Z,4.30
2018-04-27T07:09:54.822Z,4.37
2018-04-27T07:12:22.269Z,5.10
2018-04-27T07:14:49.735Z,5.00
2018-04-27T07:17:17.243Z,4.53
2018-04-27T07:19:44.886Z,5.00
2018-04-27T07:22:12.564Z,4.73
2018-04-27T07:24:40.213Z,4.57
2018-04-27T07:27:08.693Z,4.63
2018-04-27T07:29:36.164Z,4.60
2018-04-27T07:32:03.612Z,4.37
2018-04-27T07:34:31.098Z,4.53
2018-04-27T07:36:58.733Z,4.30
2018-04-27T07:39:26.403Z,4.50
2018-04-27T07:41:56.232Z,4.33
2018-04-27T07:44:23.813Z,4.13
2018-04-27T07:46:51.482Z,3.93
2018-04-27T07:49:19.036Z,3.90
2018-04-27T07:51:46.508Z,4.03
2018-04-27T07:54:14.387Z,4.60
2018-04-27T07:56:42.583Z,4.10
2018-04-27T07:59:10.891Z,4.50
2018-04-27T08:01:38.353Z,4.47
2018-04-27T08:04:05.886Z,3.73
2018-04-27T08:06:33.294Z,3.83
2018-04-27T08:09:00.777Z,3.93
2018-04-27T08:11:28.220Z,3.50
2018-04-27T08:13:55.686Z,3.47
2018-04-27T08:16:23.250Z,3.70
2018-04-27T08:18:50.702Z,3.87
2018-04-27T08:21:18.158Z,3.60
2018-04-27T08:23:45.615Z,3.57
2018-04-27T08:26:13.088Z,3.53
2018-04-27T08:28:40.622Z,3.60
2018-04-27T08:31:08.316Z,3.40
2018-04-27T08:33:35.764Z,4.03
2018-04-27T08:36:03.298Z,3.00
2018-04-27T08:38:30.676Z,3.60
2018-04-27T08:40:58.507Z,2.70
2018-04-27T08:43:25.967Z,3.30
2018-04-27T08:45:53.629Z,2.53
2018-04-27T08:48:21.297Z,3.10
2018-04-27T08:50:48.908Z,3.23
2018-04-27T08:53:16.691Z,3.30
2018-04-27T08:55:44.167Z,2.97
2018-04-27T08:58:11.635Z,3.07
2018-04-27T09:00:39.185Z,3.50
2018-04-27T09:03:06.638Z,3.13
2018-04-27T09:05:34.133Z,3.20
2018-04-27T09:08:01.597Z,3.10
2018-04-27T09:10:29.227Z,2.83
2018-04-27T09:12:56.879Z,3.40
2018-04-27T09:15:24.547Z,2.87
2018-04-27T09:17:51.997Z,3.00
2018-04-27T09:20:19.671Z,2.53
2018-04-27T09:22:47.289Z,2.60
2018-04-27T09:25:14.775Z,2.50
2018-04-27T09:27:42.231Z,2.50
2018-04-27T09:30:09.680Z,2.57
2018-04-27T09:32:37.355Z,2.40
2018-04-27T09:35:04.845Z,2.40
2018-04-27T09:37:32.349Z,2.20
2018-04-27T09:39:59.922Z,2.27
2018-04-27T09:42:27.594Z,2.63
2018-04-27T09:44:55.033Z,2.40
2018-04-27T09:47:22.612Z,2.20
2018-04-27T09:49:50.172Z,2.40
2018-04-27T09:52:17.810Z,2.10
2018-04-27T09:54:45.269Z,2.40
2018-04-27T09:57:12.728Z,2.60
2018-04-27T09:59:40.203Z,2.13
2018-04-27T10:02:07.835Z,1.77
2018-04-27T10:04:35.375Z,1.43
2018-04-27T10:07:02.976Z,1.77
2018-04-27T10:09:30.639Z,1.50
2018-04-27T10:11:58.293Z,1.77
2018-04-27T10:14:26.017Z,1.70
2018-04-27T10:16:53.628Z,1.33
2018-04-27T10:19:21.064Z,1.70
2018-04-27T10:21:48.550Z,1.30
2018-04-27T10:24:16.044Z,1.30
2018-04-27T10:26:43.477Z,1.10
2018-04-27T10:29:11.036Z,1.33
2018-04-27T10:31:38.486Z,1.27
2018-04-27T10:34:06.696Z,1.47
2018-04-27T10:36:34.305Z,1.40
2018-04-27T10:39:01.946Z,1.13
2018-04-27T10:41:29.412Z,1.23
2018-04-27T10:43:57.040Z,1.03
2018-04-27T10:46:24.511Z,1.10
2018-04-27T10:48:51.964Z,0.80
2018-04-27T10:51:19.443Z,1.17
2018-04-27T10:53:47.361Z,1.30
2018-04-27T10:56:14.816Z,1.40
2018-04-27T10:58:42.269Z,1.10
2018-04-27T11:01:10.529Z,1.37
2018-04-27T11:03:37.990Z,1.27
2018-04-27T11:06:05.502Z,1.30
2018-04-27T11:08:32.901Z,1.17
2018-04-27T11:11:00.587Z,1.23
2018-04-27T11:13:27.969Z,1.40
2018-04-27T11:15:55.447Z,2.83
2018-04-27T11:18:22.871Z,1.50
2018-04-27T11:20:50.354Z,1.27
2018-04-27T11:23:18.031Z,1.37
2018-04-27T11:25:45.652Z,1.00
2018-04-27T11:28:13.104Z,1.10
2018-04-27T11:30:40.565Z,1.20
2018-04-27T11:33:08.095Z,1.57
2018-04-27T11:35:35.535Z,1.37
2018-04-27T11:38:03.130Z,1.47
2018-04-27T11:40:30.596Z,1.10
2018-04-27T11:42:58.129Z,1.37
2018-04-27T11:45:25.717Z,1.00
2018-04-27T11:47:53.187Z,1.43
2018-04-27T11:50:20.626Z,1.57
2018-04-27T11:52:48.287Z,1.00
2018-04-27T11:55:15.746Z,1.20
2018-04-27T11:57:44.836Z,1.53
2018-04-27T12:00:12.319Z,1.10
2018-04-27T12:02:39.955Z,1.20
2018-04-27T12:05:07.398Z,1.10
2018-04-27T12:07:34.864Z,1.37
2018-04-27T12:10:02.364Z,1.43
2018-04-27T12:12:29.792Z,1.17
2018-04-27T12:14:57.251Z,1.00
2018-04-27T12:17:25.455Z,1.60
2018-04-27T12:19:52.906Z,1.40
2018-04-27T12:22:21.235Z,1.20
2018-04-27T12:24:48.673Z,1.00
2018-04-27T12:27:16.156Z,1.50
2018-04-27T12:29:43.797Z,1.27
2018-04-27T12:32:11.474Z,1.50
2018-04-27T12:34:39.121Z,1.33
2018-04-27T12:37:06.595Z,1.10
2018-04-27T12:39:34.062Z,1.27
2018-04-27T12:42:01.519Z,1.60
2018-04-27T12:44:28.988Z,1.57
2018-04-27T12:46:56.612Z,1.73
2018-04-27T12:49:24.054Z,1.63
2018-04-27T12:51:51.513Z,1.63
2018-04-27T12:54:18.960Z,1.93
2018-04-27T12:56:46.405Z,1.60
2018-04-27T12:59:13.870Z,1.70
2018-04-27T13:01:41.571Z,1.83
2018-04-27T13:04:09.019Z,1.53
2018-04-27T13:06:36.468Z,1.60
2018-04-27T13:09:03.925Z,1.10
2018-04-27T13:11:31.391Z,1.43
2018-04-27T13:13:58.854Z,2.07
2018-04-27T13:16:26.297Z,1.50
2018-04-27T13:18:53.748Z,1.50
2018-04-27T13:21:21.287Z,1.67
2018-04-27T13:23:48.733Z,1.60
2018-04-27T13:26:16.192Z,1.37
2018-04-27T13:28:43.769Z,1.67
2018-04-27T13:31:11.209Z,2.03
2018-04-27T13:33:38.686Z,1.50
2018-04-27T13:36:06.361Z,1.50
2018-04-27T13:38:33.826Z,1.67
2018-04-27T13:41:02.056Z,1.80
2018-04-27T13:43:29.539Z,1.70
2018-04-27T13:45:57.001Z,2.00
2018-04-27T13:48:24.661Z,2.13
2018-04-27T13:50:52.127Z,2.10
2018-04-27T13:53:19.580Z,1.70
2018-04-27T13:55:48.063Z,1.13
2018-04-27T13:58:17.147Z,1.23
2018-04-27T14:00:44.796Z,1.57
2018-04-27T14:03:12.263Z,2.53
2018-04-27T14:05:39.752Z,1.40
2018-04-27T14:08:07.179Z,2.20
2018-04-27T14:10:34.695Z,1.70
2018-04-27T14:13:02.127Z,0.87
2018-04-27T14:15:29.759Z,0.87
2018-04-27T14:17:57.414Z,1.13
2018-04-27T14:20:24.898Z,1.40
2018-04-27T14:22:52.404Z,1.40
2018-04-27T14:25:19.848Z,1.20
2018-04-27T14:27:47.301Z,1.33
2018-04-27T14:30:14.968Z,1.50
2018-04-27T14:32:42.408Z,1.70
2018-04-27T14:35:10.019Z,2.10
2018-04-27T14:37:37.543Z,2.00
2018-04-27T14:40:05.149Z,1.80
2018-04-27T14:42:33.374Z,1.87
2018-04-27T14:45:00.829Z,1.67
2018-04-27T14:47:28.319Z,2.07
2018-04-27T14:49:55.783Z,1.93
2018-04-27T14:52:23.405Z,1.67
2018-04-27T14:54:51.564Z,2.20
2018-04-27T14:57:19.035Z,1.80
2018-04-27T14:59:46.603Z,1.67
2018-04-27T15:02:14.280Z,1.63
2018-04-27T15:04:41.737Z,2.00
2018-04-27T15:07:10.692Z,1.87
2018-04-27T15:09:38.246Z,2.07
2018-04-27T15:12:05.712Z,2.03
2018-04-27T15:14:33.632Z,1.93
2018-04-27T15:17:04.203Z,2.10
2018-04-27T15:19:34.665Z,2.30
2018-04-27T15:22:03.646Z,2.10
2018-04-27T15:24:34.559Z,1.50
2018-04-27T15:27:02.165Z,2.17
2018-04-27T15:29:29.615Z,2.00
2018-04-27T15:31:57.847Z,2.10
2018-04-27T15:34:28.607Z,1.73
2018-04-27T15:36:58.307Z,1.50
2018-04-27T15:39:25.767Z,1.60
2018-04-27T15:41:53.232Z,1.90
2018-04-27T15:44:21.421Z,1.50
2018-04-27T15:46:51.824Z,1.67
2018-04-27T15:49:19.306Z,1.70
2018-04-27T15:51:46.904Z,1.90
2018-04-27T15:54:14.409Z,2.00
2018-04-27T15:56:41.861Z,1.60
2018-04-27T15:59:09.319Z,1.60
2018-04-27T16:01:36.760Z,1.70
2018-04-27T16:04:05.131Z,1.80
2018-04-27T16:06:33.008Z,1.90
2018-04-27T16:09:00.580Z,1.90
2018-04-27T16:11:28.034Z,1.53
2018-04-27T16:13:56.505Z,1.63
2018-04-27T16:16:24.186Z,1.60
2018-04-27T16:18:54.976Z,1.50
2018-04-27T16:21:23.104Z,1.50
2018-04-27T16:23:50.576Z,1.60
2018-04-27T16:26:18.077Z,1.30
2018-04-27T16:28:45.552Z,1.70
2018-04-27T16:31:12.997Z,1.30
2018-04-27T16:33:40.448Z,1.23
2018-04-27T16:36:07.902Z,1.67
2018-04-27T16:38:35.375Z,1.17
2018-04-27T16:41:02.819Z,1.83
2018-04-27T16:43:30.298Z,1.43
2018-04-27T16:45:57.747Z,1.37
2018-04-27T16:48:25.282Z,1.70
2018-04-27T16:50:52.797Z,1.33
2018-04-27T16:53:21.026Z,1.60
2018-04-27T16:55:48.465Z,1.50
2018-04-27T16:58:16.039Z,1.03
2018-04-27T17:00:43.506Z,1.53
2018-04-27T17:03:11.090Z,1.57
2018-04-27T17:05:39.431Z,1.33
2018-04-27T17:08:06.875Z,1.60
2018-04-27T17:10:34.327Z,1.20
2018-04-27T17:13:01.799Z,1.30
2018-04-27T17:15:29.262Z,1.27
2018-04-27T17:17:56.922Z,1.33
2018-04-27T17:20:24.373Z,0.98
2018-04-27T17:22:52.043Z,1.10
2018-04-27T17:25:19.508Z,0.82
2018-04-27T17:27:47.155Z,1.20
2018-04-27T17:30:14.600Z,1.50
2018-04-27T17:32:42.070Z,1.27
2018-04-27T17:35:09.564Z,1.13
2018-04-27T17:37:36.971Z,1.30
2018-04-27T17:40:04.444Z,1.13
2018-04-27T17:42:31.876Z,1.30
2018-04-27T17:44:59.339Z,1.47
2018-04-27T17:47:26.874Z,1.17
2018-04-27T17:49:54.420Z,1.20
2018-04-27T17:52:23.889Z,1.40
2018-04-27T17:54:51.785Z,1.27
2018-04-27T17:57:19.400Z,1.50
2018-04-27T17:59:48.511Z,1.10
2018-04-27T18:02:17.355Z,1.30
2018-04-27T18:04:46.267Z,1.20
2018-04-27T18:07:17.586Z,1.20
2018-04-27T18:09:45.175Z,1.37
2018-04-27T18:12:13.009Z,1.57
2018-04-27T18:14:41.347Z,1.30
2018-04-27T18:17:09.144Z,1.60
2018-04-27T18:19:36.651Z,1.80
2018-04-27T18:22:06.005Z,2.00
2018-04-27T18:24:33.453Z,1.90
2018-04-27T18:27:01.071Z,1.60
2018-04-27T18:29:28.723Z,1.63
2018-04-27T18:31:56.243Z,1.33
2018-04-27T18:34:23.701Z,1.53
2018-04-27T18:36:51.927Z,1.60
2018-04-27T18:39:19.429Z,2.20
2018-04-27T18:41:48.324Z,1.53
2018-04-27T18:44:15.755Z,1.90
2018-04-27T18:46:43.222Z,1.50
2018-04-27T18:49:11.490Z,1.70
2018-04-27T18:51:39.179Z,1.58
2018-04-27T18:54:06.624Z,1.47
2018-04-27T18:56:36.944Z,2.27
2018-04-27T18:59:05.080Z,1.77
2018-04-27T19:01:33.429Z,1.90
2018-04-27T19:04:01.076Z,1.70
2018-04-27T19:06:29.918Z,1.43
2018-04-27T19:08:58.442Z,1.73
2018-04-27T19:11:25.992Z,1.83
2018-04-27T19:13:53.463Z,1.57
2018-04-27T19:16:21.015Z,1.70
2018-04-27T19:18:49.128Z,2.17
2018-04-27T19:21:19.696Z,1.57
2018-04-27T19:23:47.327Z,1.60
2018-04-27T19:26:14.796Z,1.73
2018-04-27T19:28:42.297Z,1.90
2018-04-27T19:31:10.410Z,2.07
2018-04-27T19:33:38.713Z,1.90
2018-04-27T19:36:06.238Z,1.47
2018-04-27T19:38:33.831Z,1.83
2018-04-27T19:41:01.358Z,2.00
2018-04-27T19:43:28.808Z,2.17
2018-04-27T19:45:56.427Z,1.83
2018-04-27T19:48:23.891Z,2.00
2018-04-27T19:50:56.644Z,1.60
2018-04-27T19:53:25.064Z,1.60
2018-04-27T19:55:52.611Z,1.77
2018-04-27T19:58:20.227Z,1.70
2018-04-27T20:00:47.665Z,1.80
2018-04-27T20:03:15.888Z,1.80
2018-04-27T20:05:44.569Z,2.17
2018-04-27T20:08:12.166Z,1.70
2018-04-27T20:10:40.673Z,1.93
2018-04-27T20:13:13.427Z,1.70
2018-04-27T20:15:43.544Z,1.50
2018-04-27T20:18:16.872Z,1.77
2018-04-27T20:20:49.311Z,1.40
2018-04-27T20:23:18.500Z,2.03
2018-04-27T20:25:49.941Z,1.67
2018-04-27T20:28:18.081Z,1.77
2018-04-27T20:30:45.639Z,1.67
2018-04-27T20:33:13.132Z,1.63
2018-04-27T20:35:40.602Z,1.77
2018-04-27T20:38:27.184Z,1.60
2018-04-27T20:40:56.472Z,1.60
2018-04-27T20:43:26.297Z,1.87
2018-04-27T20:45:54.569Z,1.70
2018-04-27T20:48:23.426Z,1.70
2018-04-27T20:51:01.344Z,1.70
2018-04-27T20:53:33.962Z,1.90
2018-04-27T20:56:02.496Z,2.23
2018-04-27T20:58:30.172Z,1.83
2018-04-27T21:00:57.687Z,2.00
2018-04-27T21:03:29.975Z,1.87
2018-04-27T21:05:57.706Z,2.03
2018-04-27T21:08:27.795Z,1.97
2018-04-27T21:10:55.269Z,2.10
2018-04-27T21:13:24.022Z,2.40
2018-04-27T21:15:51.509Z,2.07
2018-04-27T21:18:20.021Z,2.00
2018-04-27T21:20:47.572Z,2.47
2018-04-27T21:23:16.599Z,2.30
2018-04-27T21:25:45.751Z,2.50
2018-04-27T21:28:17.251Z,2.30
2018-04-27T21:30:48.883Z,2.90
2018-04-27T21:33:16.364Z,2.50
2018-04-27T21:35:47.521Z,2.40
2018-04-27T21:38:20.858Z,2.40
2018-04-27T21:40:49.133Z,2.37
2018-04-27T21:43:17.372Z,2.43
2018-04-27T21:45:44.835Z,2.60
2018-04-27T21:48:15.455Z,2.83
2018-04-27T21:50:42.917Z,2.50
2018-04-27T21:53:11.809Z,2.80
2018-04-27T21:55:40.144Z,2.43
2018-04-27T21:58:10.223Z,2.57
2018-04-27T22:00:39.163Z,2.80
2018-04-27T22:03:23.522Z,2.43
2018-04-27T22:09:08.646Z,3.20
2018-04-27T22:11:43.652Z,2.70
2018-04-27T22:14:15.870Z,3.00
2018-04-27T22:16:43.476Z,3.10
2018-04-27T22:19:13.328Z,3.03
2018-04-27T22:21:41.864Z,3.23
2018-04-27T22:24:11.346Z,3.73
2018-04-27T22:26:40.658Z,3.30
2018-04-27T22:32:22.724Z,3.40
2018-04-27T22:34:56.076Z,3.30
2018-04-27T22:37:23.555Z,3.40
2018-04-27T22:39:51.694Z,3.40
2018-04-27T22:42:26.172Z,3.40
2018-04-27T22:44:57.474Z,3.73
2018-04-27T22:47:34.742Z,3.63
2018-04-27T22:50:02.342Z,3.67
2018-04-27T22:52:32.936Z,3.50
2018-04-27T22:55:00.583Z,3.47
2018-04-27T22:57:34.199Z,3.87
2018-04-27T23:00:18.531Z,3.57
2018-04-27T23:02:47.843Z,3.60
2018-04-27T23:05:26.221Z,3.90
2018-04-27T23:07:57.875Z,3.80
2018-04-27T23:13:34.502Z,3.80
2018-04-27T23:16:02.759Z,4.10
2018-04-27T23:21:36.520Z,3.40
2018-04-27T23:24:03.987Z,3.50
2018-04-27T23:26:31.442Z,3.70
2018-04-27T23:28:58.883Z,3.80
2018-04-27T23:31:26.333Z,3.73
2018-04-27T23:33:53.801Z,4.10
2018-04-27T23:36:21.271Z,3.83
2018-04-27T23:38:48.713Z,4.30
2018-04-27T23:41:16.180Z,3.83
2018-04-27T23:43:43.744Z,4.50
2018-04-27T23:46:11.199Z,4.33
2018-04-27T23:48:39.782Z,4.23
2018-04-27T23:51:07.426Z,4.10
2018-04-27T23:53:35.710Z,4.03
2018-04-27T23:56:03.185Z,4.20
2018-04-27T23:58:31.388Z,4.30
